^^

Weather Underground History

Daily Summary for March 2, 2019 Units:  Metric    English   Both
Daily Weekly Monthly Yearly Custom
  High: Low: Average:
Temperature: 11.3 °C 2.4 °C 5.5 °C
Dew Point: 5.6 °C 1.4 °C 3.5 °C
Humidity: 95% 58.3% 87%
Wind Speed: 10.1km/h 0km/h 2.1km/h
Wind Gust: 20.9km/h - -
Wind- - SSW
Pressure: 1018.0 hPa 1010.3 hPa -
Precipitation: 0.0 mm    
Historical Graphs
 
 
Tabular Data for March 2, 2019
Time Temperature Dew Point Pressure Wind Wind Speed Wind Gust Humidity Rainfall Rate (Hourly) solar
00:04 5.8 °C 4.4 °C 1010.3 hPa NNW 1.1 km/h 3.2 km/h 90.4% 0.0 mm 0 W/m2
00:09 5.8 °C 4.4 °C 1010.3 hPa NNW 0.5 km/h 3.2 km/h 90.9% 0.0 mm 0 W/m2
00:14 5.8 °C 4.4 °C 1010.5 hPa NNW 0.4 km/h 3.2 km/h 91% 0.0 mm 0 W/m2
00:19 5.7 °C 4.4 °C 1010.6 hPa NNW 0.7 km/h 6.4 km/h 91% 0.0 mm 0 W/m2
00:24 5.7 °C 4.3 °C 1010.6 hPa NNW 0.1 km/h 6.4 km/h 91% 0.0 mm 0 W/m2
00:29 5.7 °C 4.3 °C 1010.8 hPa NNW 0.2 km/h 4.8 km/h 91% 0.0 mm 0 W/m2
00:34 5.6 °C 4.2 °C 1010.9 hPa NNW 0.4 km/h 4.8 km/h 91% 0.0 mm 0 W/m2
00:39 5.6 °C 4.2 °C 1011.0 hPa NNW 0.1 km/h 3.2 km/h 91% 0.0 mm 0 W/m2
00:44 5.5 °C 4.1 °C 1011.1 hPa NNW 0.3 km/h 3.2 km/h 91% 0.0 mm 0 W/m2
00:49 5.4 °C 4.2 °C 1011.1 hPa NNW 0.4 km/h 4.8 km/h 91.5% 0.0 mm 0 W/m2
00:54 5.4 °C 4.3 °C 1011.1 hPa North 0.3 km/h 6.4 km/h 92% 0.0 mm 0 W/m2
00:59 5.4 °C 4.3 °C 1011.2 hPa Calm   6.4 km/h 92% 0.0 mm 0 W/m2
01:04 5.4 °C 4.3 °C 1011.3 hPa NNE 1 km/h 8 km/h 92% 0.0 mm 0 W/m2
01:09 5.5 °C 4.3 °C 1011.5 hPa NNE 0.3 km/h 8 km/h 92% 0.0 mm 0 W/m2
01:14 5.5 °C 4.3 °C 1011.6 hPa North 1.2 km/h 6.4 km/h 92% 0.0 mm 0 W/m2
01:19 5.6 °C 4.4 °C 1011.7 hPa North 0.7 km/h 6.4 km/h 92% 0.0 mm 0 W/m2
01:24 5.6 °C 4.4 °C 1011.8 hPa North 0.8 km/h 4.8 km/h 92% 0.0 mm 0 W/m2
01:29 5.5 °C 4.3 °C 1011.8 hPa North 0.5 km/h 4.8 km/h 92% 0.0 mm 0 W/m2
01:34 5.5 °C 4.3 °C 1011.8 hPa Calm     92% 0.0 mm 0 W/m2
01:39 5.4 °C 4.2 °C 1011.8 hPa North 0.1 km/h 1.6 km/h 92% 0.0 mm 0 W/m2
01:44 5.2 °C 4 °C 1011.9 hPa Calm   1.6 km/h 92% 0.0 mm 0 W/m2
01:49 5.1 °C 3.9 °C 1012.0 hPa Calm     92% 0.0 mm 0 W/m2
01:54 4.9 °C 3.7 °C 1012.0 hPa Calm     92% 0.0 mm 0 W/m2
01:59 4.8 °C 3.6 °C 1012.1 hPa Calm     92% 0.0 mm 0 W/m2
02:04 4.6 °C 3.4 °C 1012.1 hPa Calm     92% 0.0 mm 0 W/m2
02:09 4.5 °C 3.3 °C 1012.1 hPa Calm     92% 0.0 mm 0 W/m2
02:14 4.4 °C 3.2 °C 1012.2 hPa Calm     92% 0.0 mm 0 W/m2
02:19 4.3 °C 3.1 °C 1012.2 hPa Calm     92% 0.0 mm 0 W/m2
02:24 4.2 °C 3 °C 1012.3 hPa Calm     92% 0.0 mm 0 W/m2
02:29 4.1 °C 3 °C 1012.4 hPa Calm     92% 0.0 mm 0 W/m2
02:34 4.1 °C 2.9 °C 1012.5 hPa Calm     92% 0.0 mm 0 W/m2
02:39 4.1 °C 3 °C 1012.5 hPa Calm     92.9% 0.0 mm 0 W/m2
02:44 4 °C 3 °C 1012.5 hPa Calm     93% 0.0 mm 0 W/m2
02:49 4 °C 2.9 °C 1012.5 hPa Calm     93% 0.0 mm 0 W/m2
02:54 3.9 °C 2.9 °C 1012.7 hPa Calm     93% 0.0 mm 0 W/m2
02:59 3.9 °C 2.9 °C 1012.7 hPa Calm     93% 0.0 mm 0 W/m2
03:04 3.9 °C 2.8 °C 1012.8 hPa Calm     93% 0.0 mm 0 W/m2
03:09 3.8 °C 2.8 °C 1012.8 hPa North 0.2 km/h 3.2 km/h 93% 0.0 mm 0 W/m2
03:14 3.9 °C 2.8 °C 1012.8 hPa North 0.1 km/h 1.6 km/h 93% 0.0 mm 0 W/m2
03:19 3.9 °C 2.9 °C 1012.8 hPa North 0.1 km/h 1.6 km/h 93% 0.0 mm 0 W/m2
03:24 4 °C 3 °C 1012.8 hPa Calm   1.6 km/h 93% 0.0 mm 0 W/m2
03:29 4.1 °C 3 °C 1012.9 hPa North 0.2 km/h 3.2 km/h 93% 0.0 mm 0 W/m2
03:34 4.2 °C 3.2 °C 1013.0 hPa North 0.1 km/h 3.2 km/h 93.4% 0.0 mm 0 W/m2
03:39 4.2 °C 3.4 °C 1013.0 hPa Calm   1.6 km/h 94% 0.0 mm 0 W/m2
03:44 4.2 °C 3.4 °C 1013.0 hPa Calm   1.6 km/h 94% 0.0 mm 0 W/m2
03:49 4.2 °C 3.3 °C 1013.0 hPa Calm   1.6 km/h 94% 0.0 mm 0 W/m2
03:54 4.1 °C 3.2 °C 1013.1 hPa Calm     93.4% 0.0 mm 0 W/m2
03:59 4 °C 3 °C 1013.1 hPa Calm     93% 0.0 mm 0 W/m2
04:04 3.9 °C 2.9 °C 1013.2 hPa Calm     93% 0.0 mm 0 W/m2
04:09 3.9 °C 2.9 °C 1013.3 hPa Calm   1.6 km/h 93% 0.0 mm 0 W/m2
04:14 3.9 °C 2.9 °C 1013.3 hPa North 0.3 km/h 4.8 km/h 93% 0.0 mm 0 W/m2
04:19 3.9 °C 2.9 °C 1013.3 hPa North 0.2 km/h 4.8 km/h 93% 0.0 mm 0 W/m2
04:24 3.9 °C 2.9 °C 1013.4 hPa North 0.1 km/h 1.6 km/h 93.5% 0.0 mm 0 W/m2
04:29 3.9 °C 3 °C 1013.4 hPa North 0.2 km/h 1.6 km/h 94% 0.0 mm 0 W/m2
04:34 3.9 °C 3.1 °C 1013.4 hPa North 0.2 km/h 3.2 km/h 94% 0.0 mm 0 W/m2
04:39 3.9 °C 3 °C 1013.4 hPa North 0.3 km/h 3.2 km/h 93.7% 0.0 mm 0 W/m2
04:44 3.9 °C 2.9 °C 1013.4 hPa North 0.1 km/h 3.2 km/h 93.3% 0.0 mm 0 W/m2
04:49 3.9 °C 2.9 °C 1013.4 hPa North 0.1 km/h 1.6 km/h 93.7% 0.0 mm 0 W/m2
04:54 3.8 °C 3 °C 1013.5 hPa Calm   1.6 km/h 94% 0.0 mm 0 W/m2
04:59 3.8 °C 2.9 °C 1013.4 hPa Calm     93.9% 0.0 mm 0 W/m2
05:04 3.8 °C 2.7 °C 1013.5 hPa Calm     93% 0.0 mm 0 W/m2
05:09 3.7 °C 2.7 °C 1013.4 hPa Calm     93% 0.0 mm 0 W/m2
05:14 3.7 °C 2.7 °C 1013.4 hPa Calm     93% 0.0 mm 0 W/m2
05:19 3.6 °C 2.6 °C 1013.4 hPa Calm     93% 0.0 mm 0 W/m2
05:24 3.5 °C 2.5 °C 1013.4 hPa Calm     93% 0.0 mm 0 W/m2
05:29 3.4 °C 2.4 °C 1013.5 hPa Calm     93% 0.0 mm 0 W/m2
05:34 3.3 °C 2.3 °C 1013.6 hPa Calm     93% 0.0 mm 0 W/m2
05:39 3.3 °C 2.3 °C 1013.6 hPa Calm     93% 0.0 mm 0 W/m2
05:44 3.2 °C 2.2 °C 1013.6 hPa Calm     93% 0.0 mm 0 W/m2
05:49 3.2 °C 2.2 °C 1013.6 hPa Calm     93% 0.0 mm 0 W/m2
05:54 3.1 °C 2.1 °C 1013.7 hPa Calm     93% 0.0 mm 0 W/m2
05:59 3.1 °C 2.1 °C 1013.7 hPa Calm     93% 0.0 mm 0 W/m2
06:04 3 °C 2 °C 1013.6 hPa Calm     93% 0.0 mm 0 W/m2
06:09 3 °C 1.9 °C 1013.6 hPa North 0.1 km/h 1.6 km/h 93% 0.0 mm 0 W/m2
06:14 2.9 °C 1.9 °C 1013.6 hPa Calm     93% 0.0 mm 0 W/m2
06:19 2.9 °C 1.9 °C 1013.6 hPa Calm     93% 0.0 mm 0 W/m2
06:24 2.8 °C 1.8 °C 1013.8 hPa Calm     93% 0.0 mm 0 W/m2
06:29 2.8 °C 1.8 °C 1013.8 hPa Calm     93% 0.0 mm 0 W/m2
06:34 2.7 °C 1.7 °C 1013.9 hPa Calm     93% 0.0 mm 0 W/m2
06:39 2.7 °C 1.6 °C 1013.9 hPa Calm     93% 0.0 mm 0 W/m2
06:44 2.6 °C 1.6 °C 1014.0 hPa Calm     93% 0.0 mm 0 W/m2
06:49 2.6 °C 1.6 °C 1014.2 hPa Calm     93.1% 0.0 mm 0 W/m2
06:54 2.6 °C 1.7 °C 1014.4 hPa Calm     94% 0.0 mm 0 W/m2
06:59 2.5 °C 1.6 °C 1014.3 hPa Calm     93.6% 0.0 mm 0 W/m2
07:04 2.5 °C 1.5 °C 1014.3 hPa Calm     93.2% 0.0 mm 0 W/m2
07:09 2.4 °C 1.4 °C 1014.4 hPa Calm     93% 0.0 mm 5 W/m2
07:14 2.4 °C 1.5 °C 1014.6 hPa Calm     93.3% 0.0 mm 7 W/m2
07:19 2.4 °C 1.6 °C 1014.6 hPa Calm     94% 0.0 mm 11 W/m2
07:24 2.4 °C 1.6 °C 1014.6 hPa Calm     94% 0.0 mm 12 W/m2
07:29 2.5 °C 1.6 °C 1014.6 hPa North 0.1 km/h 3.2 km/h 94% 0.0 mm 14 W/m2
07:34 2.5 °C 1.7 °C 1014.7 hPa North 0.1 km/h 3.2 km/h 94% 0.0 mm 18 W/m2
07:39 2.6 °C 1.8 °C 1014.8 hPa Calm   1.6 km/h 94% 0.0 mm 32 W/m2
07:44 2.7 °C 1.8 °C 1014.8 hPa Calm     94% 0.0 mm 60 W/m2
07:49 2.8 °C 1.9 °C 1015.0 hPa North 0.1 km/h 1.6 km/h 94% 0.0 mm 72 W/m2
07:54 2.9 °C 2 °C 1015.1 hPa Calm   1.6 km/h 94% 0.0 mm 83 W/m2
07:59 3.1 °C 2.2 °C 1015.2 hPa North 0.6 km/h 3.2 km/h 94% 0.0 mm 95 W/m2
08:04 3.2 °C 2.4 °C 1015.2 hPa North 0.1 km/h 3.2 km/h 94% 0.0 mm 105 W/m2
08:09 3.4 °C 2.5 °C 1015.4 hPa North 0.6 km/h 4.8 km/h 94% 0.0 mm 118 W/m2
08:14 3.5 °C 2.6 °C 1015.5 hPa North 0.2 km/h 3.2 km/h 94% 0.0 mm 132 W/m2
08:19 3.7 °C 2.8 °C 1015.6 hPa North 0.1 km/h 3.2 km/h 94% 0.0 mm 144 W/m2
08:24 3.8 °C 3 °C 1015.6 hPa North 0.3 km/h 3.2 km/h 94.3% 0.0 mm 158 W/m2
08:29 4 °C 3.1 °C 1015.6 hPa North 0.6 km/h 3.2 km/h 94% 0.0 mm 171 W/m2
08:34 4.2 °C 3.5 °C 1015.7 hPa North 0.6 km/h 3.2 km/h 94.9% 0.0 mm 185 W/m2
08:39 4.4 °C 3.5 °C 1015.7 hPa North 0.5 km/h 3.2 km/h 94.2% 0.0 mm 193 W/m2
08:44 4.6 °C 3.9 °C 1015.9 hPa North 1.6 km/h 4.8 km/h 95% 0.0 mm 206 W/m2
08:49 4.8 °C 3.9 °C 1016.0 hPa North 2.5 km/h 6.4 km/h 94.2% 0.0 mm 216 W/m2
08:54 5 °C 4.1 °C 1016.0 hPa North 2.1 km/h 6.4 km/h 94.3% 0.0 mm 229 W/m2
08:59 5.2 °C 4.3 °C 1016.1 hPa NNW 3.2 km/h 9.7 km/h 94% 0.0 mm 239 W/m2
09:04 5.4 °C 4.5 °C 1016.1 hPa NNW 2.8 km/h 9.7 km/h 94% 0.0 mm 250 W/m2
09:09 5.7 °C 4.7 °C 1016.1 hPa NNW 2.5 km/h 8 km/h 93.6% 0.0 mm 260 W/m2
09:14 5.9 °C 4.9 °C 1016.1 hPa NNW 2.1 km/h 6.4 km/h 93% 0.0 mm 269 W/m2
09:19 6.2 °C 5 °C 1016.3 hPa NNW 3.3 km/h 8 km/h 92.1% 0.0 mm 279 W/m2
09:24 6.4 °C 4.9 °C 1016.5 hPa NNW 3.1 km/h 8 km/h 90.5% 0.0 mm 290 W/m2
09:29 6.6 °C 5 °C 1016.5 hPa NNW 2.1 km/h 8 km/h 89.5% 0.0 mm 301 W/m2
09:34 6.9 °C 5 °C 1016.5 hPa North 2 km/h 8 km/h 88.2% 0.0 mm 311 W/m2
09:39 7.1 °C 5.1 °C 1016.5 hPa NNW 2.8 km/h 9.7 km/h 87.2% 0.0 mm 323 W/m2
09:44 7.4 °C 5.1 °C 1016.7 hPa NNW 4.7 km/h 9.7 km/h 85.5% 0.0 mm 334 W/m2
09:49 7.5 °C 5 °C 1016.8 hPa NW 4.9 km/h 12.9 km/h 83.7% 0.0 mm 345 W/m2
09:54 7.7 °C 4.9 °C 1016.8 hPa NW 4.5 km/h 12.9 km/h 82.1% 0.0 mm 357 W/m2
09:59 7.9 °C 5.1 °C 1016.8 hPa NNW 5.1 km/h 12.9 km/h 82% 0.0 mm 367 W/m2
10:04 8.1 °C 4.9 °C 1016.9 hPa NW 5 km/h 12.9 km/h 80.5% 0.0 mm 380 W/m2
10:09 8.3 °C 5 °C 1016.9 hPa NW 4.4 km/h 14.5 km/h 79.8% 0.0 mm 388 W/m2
10:14 8.4 °C 5.2 °C 1017.0 hPa NNW 4 km/h 8 km/h 80.3% 0.0 mm 401 W/m2
10:19 8.7 °C 5.6 °C 1017.0 hPa NNW 4.7 km/h 9.7 km/h 80.9% 0.0 mm 408 W/m2
10:24 8.8 °C 5.5 °C 1017.0 hPa NNW 5.1 km/h 11.3 km/h 79.8% 0.0 mm 420 W/m2
10:29 8.9 °C 5.1 °C 1017.1 hPa NW 7.2 km/h 16.1 km/h 77.4% 0.0 mm 431 W/m2
10:34 8.8 °C 4.7 °C 1017.1 hPa NW 8.1 km/h 16.1 km/h 75.4% 0.0 mm 439 W/m2
10:39 8.8 °C 4.7 °C 1017.2 hPa NW 7.6 km/h 16.1 km/h 75.3% 0.0 mm 450 W/m2
10:44 8.9 °C 4.7 °C 1017.1 hPa NW 9 km/h 16.1 km/h 75.1% 0.0 mm 459 W/m2
10:49 8.9 °C 4.7 °C 1017.2 hPa NW 7 km/h 16.1 km/h 74.8% 0.0 mm 468 W/m2
10:54 9.1 °C 4.8 °C 1017.3 hPa NNW 6.4 km/h 12.9 km/h 74.4% 0.0 mm 475 W/m2
10:59 9.2 °C 4.9 °C 1017.3 hPa NW 6.9 km/h 14.5 km/h 74.3% 0.0 mm 482 W/m2
11:04 9.4 °C 4.9 °C 1017.3 hPa NW 6.1 km/h 12.9 km/h 73.7% 0.0 mm 490 W/m2
11:09 9.5 °C 5.3 °C 1017.3 hPa NW 6.6 km/h 11.3 km/h 74.8% 0.0 mm 497 W/m2
11:14 9.6 °C 5 °C 1017.4 hPa NNW 8.2 km/h 14.5 km/h 72.9% 0.0 mm 504 W/m2
11:19 9.7 °C 5 °C 1017.4 hPa NW 6.2 km/h 12.9 km/h 72.5% 0.0 mm 515 W/m2
11:24 9.8 °C 4.7 °C 1017.5 hPa NW 9.6 km/h 20.9 km/h 70.4% 0.0 mm 522 W/m2
11:29 9.9 °C 4.7 °C 1017.5 hPa NW 7.1 km/h 14.5 km/h 70.5% 0.0 mm 529 W/m2
11:34 10 °C 4.8 °C 1017.5 hPa NNW 8.2 km/h 16.1 km/h 70.1% 0.0 mm 534 W/m2
11:39 10.1 °C 4.9 °C 1017.6 hPa NW 7.8 km/h 14.5 km/h 70.2% 0.0 mm 540 W/m2
11:44 10.3 °C 5.1 °C 1017.6 hPa NW 8.3 km/h 17.7 km/h 70.2% 0.0 mm 545 W/m2
11:49 10.4 °C 4.9 °C 1017.7 hPa NW 9.7 km/h 19.3 km/h 68.9% 0.0 mm 548 W/m2
11:54 10.4 °C 4.3 °C 1017.8 hPa NW 9.9 km/h 19.3 km/h 65.8% 0.0 mm 557 W/m2
11:59 10.5 °C 4 °C 1017.9 hPa NW 7.3 km/h 16.1 km/h 63.9% 0.0 mm 559 W/m2
12:04 10.7 °C 4.2 °C 1018.0 hPa NNW 4.8 km/h 12.9 km/h 64.2% 0.0 mm 564 W/m2
12:09 10.9 °C 4 °C 1018.0 hPa NNW 3.9 km/h 14.5 km/h 62.3% 0.0 mm 566 W/m2
12:14 11.1 °C 3.8 °C 1018.0 hPa NW 9.4 km/h 17.7 km/h 61.1% 0.0 mm 571 W/m2
12:19 11 °C 3.6 °C 1018.0 hPa NW 10.1 km/h 19.3 km/h 60.2% 0.0 mm 573 W/m2
12:24 11 °C 3.3 °C 1017.9 hPa NW 10 km/h 17.7 km/h 59.2% 0.0 mm 575 W/m2
12:29 10.9 °C 3.5 °C 1018.0 hPa NW 7.6 km/h 14.5 km/h 59.9% 0.0 mm 577 W/m2
12:34 11.1 °C 3.9 °C 1018.0 hPa NW 4.8 km/h 12.9 km/h 61.2% 0.0 mm 578 W/m2
12:39 11.2 °C 3.7 °C 1018.0 hPa NW 7.1 km/h 16.1 km/h 60% 0.0 mm 578 W/m2
12:44 11.3 °C 3.8 °C 1018.0 hPa NW 8.7 km/h 16.1 km/h 60.2% 0.0 mm 578 W/m2
12:49 11.3 °C 3.4 °C 1018.0 hPa NW 9.9 km/h 17.7 km/h 58.3% 0.0 mm 580 W/m2
12:54 11.2 °C 3.7 °C 1018.0 hPa NW 8.9 km/h 17.7 km/h 59.8% 0.0 mm 580 W/m2
Compliments of Weather Underground - 3.25 mb